Muzaffargarh Weather



Muzaffargarh's Current Weather

Temprature 24o haze

haze

Rain: 0 %

Min Temprature24o
Max Temprature24o
Humidity57
Wind Speed2.54 m/h
Sun Rise05:54:46
Sun Set18:38:21
Current Time: 09-Apr-2020 01:36:55
Lat/Lon: 30.08, 71.19




Muzaffargarh's Geo Location



Muzaffargarh's Weather Forecast

Time Overall Temp Min Temp Max Temp Humidity Wind Speed Rain
09-Apr-2020 (Thu)
02:00:00 clear sky 22.420 22.420 22.910 29 2.54 m/h 0 %
05:00:00 clear sky 21.060 21.060 21.430 33 1.58 m/h 0 %
08:00:00 broken clouds 25.170 25.170 25.410 27 2.03 m/h 0 %
11:00:00 broken clouds 32.400 32.400 32.520 17 2.69 m/h 0 %
14:00:00 overcast clouds 36.250 36.250 36.250 12 3.59 m/h 0 %
17:00:00 light rain 36.060 36.060 36.060 12 2.97 m/h 14 %
20:00:00 light rain 29.480 29.480 29.480 20 3.19 m/h 11 %
23:00:00 light rain 26.340 26.340 26.340 29 3.73 m/h 13 %
10-Apr-2020 (Fri)
02:00:00 clear sky 24.740 24.740 24.740 29 1.22 m/h 0 %
05:00:00 clear sky 22.720 22.720 22.720 44 5.57 m/h 0 %
08:00:00 clear sky 24.560 24.560 24.560 42 7.03 m/h 0 %
11:00:00 clear sky 31.350 31.350 31.350 27 6.83 m/h 0 %
14:00:00 clear sky 34.650 34.650 34.650 20 6.24 m/h 0 %
17:00:00 clear sky 33.750 33.750 33.750 20 4.85 m/h 0 %
20:00:00 few clouds 28.620 28.620 28.620 28 3.41 m/h 0 %
23:00:00 few clouds 27.080 27.080 27.080 31 3.59 m/h 0 %
11-Apr-2020 (Sat)
02:00:00 overcast clouds 25.740 25.740 25.740 34 3.58 m/h 0 %
05:00:00 overcast clouds 24.210 24.210 24.210 39 3.26 m/h 0 %
08:00:00 scattered clouds 28.840 28.840 28.840 29 3.82 m/h 0 %
11:00:00 scattered clouds 34.660 34.660 34.660 19 3.56 m/h 0 %
14:00:00 few clouds 37.480 37.480 37.480 15 2.66 m/h 0 %
17:00:00 broken clouds 37.260 37.260 37.260 14 1.63 m/h 0 %
20:00:00 overcast clouds 31.690 31.690 31.690 20 2.92 m/h 0 %
23:00:00 overcast clouds 29.200 29.200 29.200 23 1.49 m/h 0 %
12-Apr-2020 (Sun)
02:00:00 overcast clouds 27.280 27.280 27.280 25 1.44 m/h 0 %
05:00:00 broken clouds 26.190 26.190 26.190 26 1.24 m/h 0 %
08:00:00 broken clouds 30.620 30.620 30.620 20 1.91 m/h 0 %
11:00:00 broken clouds 37.480 37.480 37.480 14 0.72 m/h 0 %
14:00:00 clear sky 40.760 40.760 40.760 9 3.27 m/h 0 %
17:00:00 clear sky 40.270 40.270 40.270 10 2.99 m/h 0 %
20:00:00 scattered clouds 32.630 32.630 32.630 19 2.73 m/h 0 %
23:00:00 light rain 31.170 31.170 31.170 21 2.03 m/h 18 %
13-Apr-2020 (Mon)
02:00:00 overcast clouds 29.140 29.140 29.140 25 1.85 m/h 0 %
05:00:00 overcast clouds 27.900 27.900 27.900 26 1.21 m/h 0 %
08:00:00 light rain 31.670 31.670 31.670 22 0.87 m/h 30 %
11:00:00 scattered clouds 39.970 39.970 39.970 12 0.2 m/h 0 %
14:00:00 clear sky 42.470 42.470 42.470 8 2.51 m/h 0 %
17:00:00 few clouds 41.820 41.820 41.820 8 1.63 m/h 0 %
20:00:00 few clouds 34.940 34.940 34.940 13 1.44 m/h 0 %
23:00:00 few clouds 32.200 32.200 32.200 15 3.47 m/h 0 %

Famous Cities (61)